Time;durP1;ratioP1;P1;durP2;ratioP2;P2;SDS_P1;SDS_P2;PMS_P1;PMS_P2;Temp;Humidity;BMP_temperature;BMP_pressure;BME280_temperature;BME280_humidity;BME280_pressure;Samples;Min_cycle;Max_cycle;Signal;HPM_P1;HPM_P2
2021/06/19 00:02:10;;;;;;;3.60;1.10;;;13.90;99.90;;;;;;5091213;28;20179;-69
2021/06/19 00:04:37;;;;;;;2.67;1.43;;;13.80;99.90;;;;;;5092964;28;20271;-67
2021/06/19 00:07:05;;;;;;;4.27;1.00;;;13.80;99.90;;;;;;5091924;28;20696;-67
2021/06/19 00:09:34;;;;;;;3.67;1.00;;;13.70;99.90;;;;;;5092923;28;20181;-71
2021/06/19 00:12:02;;;;;;;3.27;1.00;;;13.70;99.90;;;;;;5088103;28;20186;-70
2021/06/19 00:14:29;;;;;;;2.83;0.90;;;13.70;99.90;;;;;;5093216;28;20634;-67
2021/06/19 00:16:57;;;;;;;2.93;1.03;;;13.80;99.90;;;;;;5089722;28;20205;-67
2021/06/19 00:19:25;;;;;;;2.10;0.97;;;13.90;99.90;;;;;;5091986;28;20182;-67
2021/06/19 00:21:52;;;;;;;6.63;1.30;;;13.90;99.90;;;;;;5091458;28;20252;-67
2021/06/19 00:24:23;;;;;;;2.97;1.37;;;13.90;99.90;;;;;;5092177;28;20233;-68
2021/06/19 00:26:52;;;;;;;4.73;1.50;;;13.80;99.90;;;;;;5093897;28;20203;-67
2021/06/19 00:29:20;;;;;;;8.37;1.37;;;13.70;99.90;;;;;;5076078;28;20261;-69
2021/06/19 00:31:47;;;;;;;8.10;1.40;;;13.60;99.90;;;;;;5090379;28;20247;-69
2021/06/19 00:34:15;;;;;;;2.00;1.13;;;13.70;99.90;;;;;;5094189;28;20238;-70
2021/06/19 00:36:44;;;;;;;7.67;1.20;;;13.80;99.90;;;;;;5087456;28;20187;-68
2021/06/19 00:39:12;;;;;;;2.83;1.10;;;13.90;99.90;;;;;;5091741;28;20577;-70
2021/06/19 00:41:39;;;;;;;3.53;1.00;;;14.00;99.90;;;;;;5091936;28;20220;-65
2021/06/19 00:44:19;;;;;;;12.03;2.13;;;14.00;99.90;;;;;;5093439;28;20571;-67
2021/06/19 00:46:57;;;;;;;6.00;1.33;;;14.00;99.90;;;;;;5092895;28;20531;-68
2021/06/19 00:49:26;;;;;;;6.30;1.73;;;14.00;99.90;;;;;;5091239;28;20190;-68
2021/06/19 00:51:54;;;;;;;4.60;0.90;;;13.90;99.90;;;;;;5086661;28;20265;-66
2021/06/19 00:54:22;;;;;;;4.13;1.20;;;13.90;99.90;;;;;;5093525;28;20182;-66
2021/06/19 00:56:50;;;;;;;3.57;1.00;;;13.90;99.90;;;;;;5089164;28;20186;-67
2021/06/19 00:59:18;;;;;;;6.77;1.23;;;13.90;99.90;;;;;;5092582;28;20238;-70
2021/06/19 01:01:45;;;;;;;4.00;1.20;;;14.00;99.90;;;;;;5091585;28;20194;-67
2021/06/19 01:04:13;;;;;;;7.27;1.07;;;14.10;99.90;;;;;;5089553;28;20302;-67
2021/06/19 01:06:41;;;;;;;6.17;1.40;;;14.30;99.90;;;;;;5093333;28;20175;-68
2021/06/19 01:09:10;;;;;;;4.07;1.10;;;14.40;99.90;;;;;;5092556;28;20307;-67
2021/06/19 01:11:39;;;;;;;2.53;1.07;;;14.50;99.90;;;;;;5094038;28;20193;-67
2021/06/19 01:14:07;;;;;;;5.23;1.00;;;14.60;99.90;;;;;;5093034;28;20186;-70
2021/06/19 01:16:35;;;;;;;5.10;1.30;;;14.60;99.90;;;;;;5093175;28;20186;-69
2021/06/19 01:19:04;;;;;;;7.33;1.53;;;14.70;99.90;;;;;;5091581;28;20179;-70
2021/06/19 01:21:32;;;;;;;8.57;1.50;;;14.70;99.90;;;;;;5094105;28;20291;-67
2021/06/19 01:24:00;;;;;;;8.63;1.40;;;14.70;99.90;;;;;;5093571;28;20249;-67
2021/06/19 01:26:32;;;;;;;7.80;1.40;;;14.70;99.90;;;;;;5096821;28;20177;-68
2021/06/19 01:29:00;;;;;;;6.80;1.30;;;14.80;99.90;;;;;;5106110;28;20244;-68
2021/06/19 01:31:28;;;;;;;4.67;1.23;;;14.90;99.90;;;;;;5092054;28;20239;-69
2021/06/19 01:33:55;;;;;;;4.73;1.23;;;14.90;99.90;;;;;;5108657;28;20230;-69
2021/06/19 01:36:24;;;;;;;5.77;1.10;;;14.90;99.90;;;;;;5100305;28;20174;-68
2021/06/19 01:38:54;;;;;;;4.17;1.13;;;15.00;99.90;;;;;;5108887;28;20190;-71
2021/06/19 01:41:28;;;;;;;3.77;1.47;;;15.00;99.90;;;;;;5093599;28;20642;-70
2021/06/19 01:44:04;;;;;;;5.13;1.30;;;15.00;99.90;;;;;;5099919;28;20662;-73
2021/06/19 01:46:32;;;;;;;3.60;1.10;;;14.80;99.90;;;;;;5099627;27;20553;-70
2021/06/19 01:49:00;;;;;;;6.97;1.50;;;14.70;99.90;;;;;;5093453;28;20269;-71
2021/06/19 01:51:27;;;;;;;5.87;1.07;;;14.50;99.90;;;;;;5111455;28;20544;-74
2021/06/19 01:53:56;;;;;;;7.03;1.50;;;14.40;99.90;;;;;;5093444;28;20171;-69
2021/06/19 01:56:24;;;;;;;7.63;1.93;;;14.40;99.90;;;;;;5091668;28;20187;-70
2021/06/19 01:58:54;;;;;;;8.50;1.40;;;14.20;99.90;;;;;;5092581;28;20186;-69
2021/06/19 02:01:22;;;;;;;4.30;1.27;;;14.10;99.90;;;;;;5092075;28;20694;-67
2021/06/19 02:03:50;;;;;;;4.10;1.10;;;14.00;99.90;;;;;;5093004;28;20696;-69
2021/06/19 02:06:18;;;;;;;5.43;1.10;;;14.00;99.90;;;;;;5093021;28;20266;-67
2021/06/19 02:09:06;;;;;;;5.07;1.20;;;14.00;99.90;;;;;;5093311;28;20182;-70
2021/06/19 02:11:34;;;;;;;4.13;1.30;;;14.10;99.90;;;;;;5093062;28;20231;-69
2021/06/19 02:14:04;;;;;;;10.03;2.47;;;14.00;99.90;;;;;;5093258;28;20175;-67
2021/06/19 02:16:32;;;;;;;6.03;1.50;;;14.10;99.90;;;;;;5092671;28;20174;-67
2021/06/19 02:18:59;;;;;;;4.63;1.47;;;14.20;99.90;;;;;;5093297;28;20182;-68
2021/06/19 02:21:26;;;;;;;7.70;1.30;;;14.20;99.90;;;;;;5092888;28;20183;-66
2021/06/19 02:23:54;;;;;;;4.40;1.20;;;14.20;99.90;;;;;;5092725;28;20217;-66
2021/06/19 02:26:21;;;;;;;5.17;1.23;;;14.30;99.90;;;;;;5092690;28;20272;-65
2021/06/19 02:28:48;;;;;;;4.43;1.83;;;14.30;99.90;;;;;;5093055;28;20181;-67
2021/06/19 02:31:16;;;;;;;3.03;1.20;;;14.30;99.90;;;;;;5092749;28;20193;-67
2021/06/19 02:33:46;;;;;;;5.07;1.50;;;14.30;99.90;;;;;;5092759;28;20218;-69
2021/06/19 02:36:14;;;;;;;5.70;1.37;;;14.30;99.90;;;;;;5087798;28;20222;-66
2021/06/19 02:38:42;;;;;;;7.03;1.67;;;14.30;99.90;;;;;;5074396;28;20175;-67
2021/06/19 02:41:09;;;;;;;2.50;1.20;;;14.30;99.90;;;;;;5092568;28;20222;-70
2021/06/19 02:43:36;;;;;;;4.83;1.20;;;14.30;99.90;;;;;;5091303;28;20198;-68
2021/06/19 02:46:04;;;;;;;6.40;1.80;;;14.30;99.90;;;;;;5092647;28;20170;-65
2021/06/19 02:48:31;;;;;;;3.30;0.90;;;14.30;99.90;;;;;;5092282;28;20185;-66
2021/06/19 02:50:58;;;;;;;2.67;1.17;;;14.40;99.90;;;;;;5092537;28;20537;-67
2021/06/19 02:53:26;;;;;;;5.37;1.63;;;14.40;99.90;;;;;;5092541;28;20174;-66
2021/06/19 02:55:55;;;;;;;5.27;0.93;;;14.30;99.90;;;;;;5092453;28;20239;-66
2021/06/19 02:58:22;;;;;;;4.60;1.17;;;14.30;99.90;;;;;;5092301;28;20174;-65
2021/06/19 03:00:50;;;;;;;4.20;1.27;;;14.30;99.90;;;;;;5092847;28;20174;-69
2021/06/19 03:03:18;;;;;;;6.40;1.50;;;14.30;99.90;;;;;;5092502;28;20205;-69
2021/06/19 03:05:45;;;;;;;3.53;1.10;;;14.40;99.90;;;;;;5092385;28;20596;-67
2021/06/19 03:08:12;;;;;;;4.43;1.40;;;14.40;99.90;;;;;;5093323;28;20270;-67
2021/06/19 03:10:41;;;;;;;5.53;1.23;;;14.40;99.90;;;;;;5096449;28;20178;-68
2021/06/19 03:13:09;;;;;;;4.17;1.77;;;14.40;99.90;;;;;;5096263;28;20349;-65
2021/06/19 03:15:36;;;;;;;6.67;1.10;;;14.50;99.90;;;;;;5096574;28;20613;-66
2021/06/19 03:18:05;;;;;;;8.83;1.53;;;14.50;99.90;;;;;;5096208;28;20261;-68
2021/06/19 03:20:36;;;;;;;7.00;1.97;;;14.60;99.90;;;;;;5096378;28;20178;-68
2021/06/19 03:23:06;;;;;;;3.93;1.40;;;14.60;99.90;;;;;;5096188;28;20175;-65
2021/06/19 03:25:42;;;;;;;2.80;0.90;;;14.50;99.90;;;;;;5096142;28;20190;-66
2021/06/19 03:28:12;;;;;;;4.07;1.20;;;14.40;99.90;;;;;;5096173;28;20269;-68
2021/06/19 03:30:43;;;;;;;5.20;1.10;;;14.20;99.90;;;;;;5096209;28;20541;-69
2021/06/19 03:33:12;;;;;;;8.30;1.30;;;14.10;99.90;;;;;;5095987;28;20222;-67
2021/06/19 03:35:40;;;;;;;5.83;1.23;;;14.10;99.90;;;;;;5095992;28;20252;-67
2021/06/19 03:38:07;;;;;;;5.90;1.47;;;14.10;99.90;;;;;;5096359;28;20175;-68
2021/06/19 03:40:36;;;;;;;7.63;1.70;;;14.10;99.90;;;;;;5095706;28;20664;-67
2021/06/19 03:43:04;;;;;;;5.20;1.40;;;14.00;99.90;;;;;;5095835;28;20192;-68
2021/06/19 03:45:37;;;;;;;4.60;1.60;;;14.00;99.90;;;;;;5095767;28;20245;-67
2021/06/19 03:48:06;;;;;;;2.13;1.10;;;13.90;99.90;;;;;;5095714;28;20256;-69
2021/06/19 03:50:34;;;;;;;3.77;1.00;;;13.80;99.90;;;;;;5095682;28;20187;-69
2021/06/19 03:53:02;;;;;;;5.63;1.00;;;13.80;99.90;;;;;;5095937;28;20295;-68
2021/06/19 03:55:30;;;;;;;3.57;1.20;;;13.80;99.90;;;;;;5095537;28;20186;-66
2021/06/19 03:57:59;;;;;;;3.50;1.20;;;13.80;99.90;;;;;;5095792;28;20190;-68
2021/06/19 04:00:27;;;;;;;2.40;0.83;;;13.80;99.90;;;;;;5095404;28;20179;-67
2021/06/19 04:02:55;;;;;;;4.37;1.10;;;13.90;99.90;;;;;;5095544;28;20183;-68
2021/06/19 04:05:26;;;;;;;4.93;1.00;;;13.90;99.90;;;;;;5095449;28;20197;-68
2021/06/19 04:07:54;;;;;;;2.60;1.00;;;13.80;99.90;;;;;;5095277;28;20175;-68
2021/06/19 04:10:22;;;;;;;2.53;1.00;;;13.80;99.90;;;;;;5095074;28;20577;-68
2021/06/19 04:12:49;;;;;;;3.47;0.90;;;13.80;99.90;;;;;;5095337;28;20209;-68
2021/06/19 04:15:17;;;;;;;3.30;0.90;;;13.90;99.90;;;;;;5095428;28;20182;-68
2021/06/19 04:17:45;;;;;;;4.10;1.03;;;13.80;99.90;;;;;;5094545;28;20187;-68
2021/06/19 04:20:14;;;;;;;2.60;1.17;;;13.70;99.90;;;;;;5092692;28;20548;-67
2021/06/19 04:22:42;;;;;;;4.63;1.10;;;13.60;99.90;;;;;;5094999;28;20224;-68
2021/06/19 04:25:11;;;;;;;7.37;1.10;;;13.60;99.90;;;;;;5094825;28;20664;-68
2021/06/19 04:27:53;;;;;;;5.87;1.53;;;13.60;99.90;;;;;;5093540;28;20182;-69
2021/06/19 04:30:22;;;;;;;8.70;1.13;;;13.60;99.90;;;;;;5079285;28;20178;-69
2021/06/19 04:32:51;;;;;;;4.57;1.33;;;13.50;99.90;;;;;;5091989;28;20266;-71
2021/06/19 04:35:20;;;;;;;7.03;1.67;;;13.60;99.90;;;;;;5092837;28;20198;-69
2021/06/19 04:37:48;;;;;;;3.90;1.43;;;13.60;99.90;;;;;;5081858;28;20186;-71
2021/06/19 04:40:25;;;;;;;6.50;1.37;;;13.60;99.90;;;;;;5074072;28;20183;-74
2021/06/19 04:42:58;;;;;;;4.27;1.20;;;13.50;99.90;;;;;;5093701;28;20170;-70
2021/06/19 04:45:26;;;;;;;3.77;1.20;;;13.50;99.90;;;;;;5093315;28;20307;-72
2021/06/19 04:47:54;;;;;;;1.83;1.00;;;13.50;99.90;;;;;;5094380;28;20190;-66
2021/06/19 04:50:21;;;;;;;6.77;1.30;;;13.60;99.90;;;;;;5094694;28;20257;-69
2021/06/19 04:52:49;;;;;;;3.80;1.27;;;13.60;99.90;;;;;;5094046;28;20183;-66
2021/06/19 04:55:18;;;;;;;5.27;1.30;;;13.50;99.90;;;;;;5094371;28;20186;-66
2021/06/19 04:57:56;;;;;;;3.47;1.10;;;13.50;99.90;;;;;;5094061;28;20190;-68
2021/06/19 05:00:24;;;;;;;4.47;1.67;;;13.40;99.90;;;;;;5093830;28;20194;-66
2021/06/19 05:02:52;;;;;;;5.83;1.60;;;13.30;99.90;;;;;;5093859;28;20629;-66
2021/06/19 05:05:21;;;;;;;4.43;1.30;;;13.20;99.90;;;;;;5094119;28;20284;-68
2021/06/19 05:07:48;;;;;;;5.57;1.40;;;13.20;99.90;;;;;;5093271;28;20277;-65
2021/06/19 05:10:16;;;;;;;9.47;1.70;;;13.30;99.90;;;;;;5092934;28;20179;-68
2021/06/19 05:12:43;;;;;;;6.43;1.50;;;13.20;99.90;;;;;;5089082;28;20183;-66
2021/06/19 05:15:15;;;;;;;7.17;1.40;;;13.20;99.90;;;;;;5092999;28;20182;-67
2021/06/19 05:17:43;;;;;;;10.57;1.90;;;13.20;99.90;;;;;;5093171;28;20270;-68
2021/06/19 05:20:10;;;;;;;4.63;1.40;;;13.20;99.90;;;;;;5093598;28;20541;-67
2021/06/19 05:22:38;;;;;;;7.93;1.40;;;13.20;99.90;;;;;;5093299;28;20186;-67
2021/06/19 05:25:07;;;;;;;7.97;1.60;;;13.30;99.90;;;;;;5092516;28;20217;-68
2021/06/19 05:27:34;;;;;;;6.00;2.03;;;13.40;99.90;;;;;;5093175;28;20194;-68
2021/06/19 05:30:01;;;;;;;16.27;2.57;;;13.50;99.90;;;;;;5093539;28;20170;-67
2021/06/19 05:32:29;;;;;;;13.93;2.27;;;13.60;99.90;;;;;;5092940;28;20214;-68
2021/06/19 05:34:56;;;;;;;10.50;2.07;;;13.70;99.90;;;;;;5093097;28;20697;-67
2021/06/19 05:37:23;;;;;;;9.83;2.10;;;13.70;99.90;;;;;;5093657;28;20182;-66
2021/06/19 05:39:53;;;;;;;13.40;2.73;;;13.70;99.90;;;;;;5093033;28;20683;-68
2021/06/19 05:42:22;;;;;;;13.77;3.17;;;13.70;99.90;;;;;;5092888;28;20190;-67
2021/06/19 05:44:50;;;;;;;15.13;2.03;;;13.70;99.90;;;;;;5093212;28;20237;-67
2021/06/19 05:47:17;;;;;;;10.90;2.17;;;13.80;99.90;;;;;;5093493;28;20185;-68
2021/06/19 05:49:44;;;;;;;13.60;2.53;;;13.80;99.90;;;;;;5093041;28;20193;-68
2021/06/19 05:52:12;;;;;;;23.77;4.70;;;13.90;99.90;;;;;;5093448;28;20257;-66
2021/06/19 05:54:40;;;;;;;11.67;2.27;;;14.10;99.90;;;;;;5092974;28;20182;-68
2021/06/19 05:57:08;;;;;;;9.00;2.07;;;14.10;99.90;;;;;;5092971;28;20201;-68
2021/06/19 05:59:39;;;;;;;11.03;2.40;;;14.20;99.90;;;;;;5092218;28;20698;-70
2021/06/19 06:02:07;;;;;;;16.60;2.67;;;14.20;99.90;;;;;;5093148;28;20648;-67
2021/06/19 06:04:36;;;;;;;11.63;2.50;;;14.20;99.90;;;;;;5092594;28;20209;-67
2021/06/19 06:07:04;;;;;;;14.73;2.70;;;14.20;99.90;;;;;;5092994;28;20171;-70
2021/06/19 06:09:31;;;;;;;16.27;2.70;;;14.20;99.90;;;;;;5092785;28;20180;-66
2021/06/19 06:11:59;;;;;;;16.37;2.73;;;14.30;99.90;;;;;;5091421;28;20228;-68
2021/06/19 06:14:27;;;;;;;17.80;2.63;;;14.40;99.90;;;;;;5091789;28;20555;-66
2021/06/19 06:16:55;;;;;;;19.73;4.80;;;14.40;99.90;;;;;;5093023;28;20177;-67
2021/06/19 06:19:23;;;;;;;15.63;2.97;;;14.30;99.90;;;;;;5092429;28;20198;-67
2021/06/19 06:21:50;;;;;;;15.27;3.20;;;14.30;99.90;;;;;;5092416;28;20277;-67
2021/06/19 06:24:18;;;;;;;16.60;2.93;;;14.30;99.90;;;;;;5092276;28;20221;-69
2021/06/19 06:26:46;;;;;;;13.30;3.07;;;14.30;99.90;;;;;;5092697;28;20265;-73
2021/06/19 06:29:14;;;;;;;12.17;2.47;;;14.20;99.90;;;;;;5092628;28;20633;-68
2021/06/19 06:31:41;;;;;;;11.97;2.83;;;14.20;99.90;;;;;;5092100;28;20202;-68
2021/06/19 06:34:08;;;;;;;15.33;2.70;;;14.20;99.90;;;;;;5092167;28;20237;-69
2021/06/19 06:36:36;;;;;;;12.27;3.23;;;14.20;99.90;;;;;;5092069;28;20171;-67
2021/06/19 06:39:04;;;;;;;21.60;3.10;;;14.20;99.90;;;;;;5080952;28;20174;-67
2021/06/19 06:41:32;;;;;;;14.20;2.70;;;14.20;99.90;;;;;;5092810;28;20175;-67
2021/06/19 06:44:00;;;;;;;21.97;3.63;;;14.20;99.90;;;;;;5089801;28;20263;-68
2021/06/19 06:46:27;;;;;;;17.53;3.70;;;14.30;99.90;;;;;;5090167;28;20198;-70
2021/06/19 06:48:55;;;;;;;14.77;3.20;;;14.30;99.90;;;;;;5091917;28;20198;-69
2021/06/19 06:51:22;;;;;;;14.13;2.63;;;14.30;99.90;;;;;;5092057;28;20323;-68
2021/06/19 06:53:49;;;;;;;13.57;3.10;;;14.20;99.90;;;;;;5092263;28;22198;-67
2021/06/19 06:56:17;;;;;;;17.53;3.10;;;14.20;99.90;;;;;;5092151;28;20209;-67
2021/06/19 06:58:44;;;;;;;9.57;2.53;;;14.20;99.90;;;;;;5092092;28;20174;-67
2021/06/19 07:01:12;;;;;;;13.53;3.30;;;14.20;99.90;;;;;;5090604;28;20182;-66
2021/06/19 07:03:40;;;;;;;14.47;3.07;;;14.10;99.90;;;;;;5090662;28;20585;-66
2021/06/19 07:06:08;;;;;;;24.40;4.00;;;14.10;99.90;;;;;;5091916;28;20660;-66
2021/06/19 07:08:35;;;;;;;13.53;2.63;;;14.10;99.90;;;;;;5091884;28;20275;-68
2021/06/19 07:11:03;;;;;;;17.10;3.40;;;14.00;99.90;;;;;;5091516;28;20632;-68
2021/06/19 07:13:30;;;;;;;16.77;2.97;;;13.70;99.90;;;;;;5091891;28;20510;-66
2021/06/19 07:15:57;;;;;;;12.00;2.60;;;13.60;99.90;;;;;;5091854;28;20240;-67
2021/06/19 07:18:25;;;;;;;15.60;3.93;;;13.60;99.90;;;;;;5091453;28;20182;-68
2021/06/19 07:20:52;;;;;;;16.97;3.77;;;13.50;99.90;;;;;;5091346;28;20177;-66
2021/06/19 07:23:20;;;;;;;19.50;3.70;;;13.50;99.90;;;;;;5091905;28;20255;-70
2021/06/19 07:25:48;;;;;;;22.87;3.80;;;13.50;99.90;;;;;;5091046;28;20722;-70
2021/06/19 07:28:15;;;;;;;19.70;3.43;;;13.50;99.90;;;;;;5091648;28;20596;-71
2021/06/19 07:30:42;;;;;;;17.73;3.37;;;13.60;99.90;;;;;;5091969;28;20182;-70
2021/06/19 07:33:10;;;;;;;13.77;3.17;;;13.80;99.90;;;;;;5092071;28;20291;-72
2021/06/19 07:35:37;;;;;;;22.53;4.93;;;13.90;99.90;;;;;;5091286;28;20678;-70
2021/06/19 07:38:04;;;;;;;14.30;3.43;;;13.90;99.90;;;;;;5091729;28;20171;-68
2021/06/19 07:40:33;;;;;;;21.63;4.00;;;14.00;99.90;;;;;;5089082;28;20183;-69
2021/06/19 07:43:01;;;;;;;22.13;4.30;;;14.10;99.90;;;;;;5081869;28;20179;-68
2021/06/19 07:45:28;;;;;;;16.93;4.10;;;14.20;99.90;;;;;;5091590;28;20204;-67
2021/06/19 07:47:56;;;;;;;14.13;3.47;;;14.20;99.90;;;;;;5091677;28;20176;-68
2021/06/19 07:50:23;;;;;;;26.23;3.93;;;14.20;99.90;;;;;;5090953;28;20190;-67
2021/06/19 07:52:51;;;;;;;21.57;3.87;;;14.30;99.90;;;;;;5091462;28;20186;-70
2021/06/19 07:55:19;;;;;;;23.10;5.20;;;14.40;99.90;;;;;;5085982;28;20340;-68
2021/06/19 07:57:46;;;;;;;19.03;4.43;;;14.40;99.90;;;;;;5093743;28;20200;-68
2021/06/19 08:00:14;;;;;;;21.80;4.07;;;14.50;99.90;;;;;;5095162;28;20273;-68
2021/06/19 08:02:43;;;;;;;17.23;3.87;;;14.60;99.90;;;;;;5089202;28;20179;-67
2021/06/19 08:05:12;;;;;;;21.33;4.50;;;14.60;99.90;;;;;;5094940;28;20218;-67
2021/06/19 08:07:42;;;;;;;22.20;4.07;;;14.60;99.90;;;;;;5095105;28;20186;-67
2021/06/19 08:10:11;;;;;;;23.20;4.13;;;14.70;99.90;;;;;;5095125;28;20633;-68
2021/06/19 08:12:42;;;;;;;18.00;4.33;;;14.70;99.90;;;;;;5090481;28;20195;-69
2021/06/19 08:15:10;;;;;;;23.03;4.57;;;14.70;99.90;;;;;;5092712;28;20549;-68
2021/06/19 08:17:38;;;;;;;29.03;4.47;;;14.70;99.90;;;;;;5092914;28;20657;-67
2021/06/19 08:20:06;;;;;;;21.53;4.10;;;14.80;99.90;;;;;;5093132;28;20240;-69
2021/06/19 08:22:33;;;;;;;18.40;3.67;;;14.80;99.90;;;;;;5093600;28;20597;-68
2021/06/19 08:25:02;;;;;;;17.50;3.57;;;14.80;99.90;;;;;;5094381;28;20252;-67
2021/06/19 08:27:29;;;;;;;21.83;3.87;;;14.80;99.90;;;;;;5093517;28;20202;-68
2021/06/19 08:29:56;;;;;;;21.43;4.40;;;14.70;99.90;;;;;;5093220;28;20225;-67
2021/06/19 08:32:24;;;;;;;13.93;3.37;;;14.70;99.90;;;;;;5090578;28;20536;-69
2021/06/19 08:34:52;;;;;;;19.37;3.33;;;14.70;99.90;;;;;;5123526;27;20653;-67
2021/06/19 08:37:20;;;;;;;18.93;3.70;;;14.80;99.90;;;;;;5091947;28;20598;-70
2021/06/19 08:39:47;;;;;;;25.20;3.97;;;14.80;99.90;;;;;;5084571;28;20665;-73
2021/06/19 08:42:15;;;;;;;19.47;3.40;;;14.80;99.90;;;;;;5091750;28;20534;-67
2021/06/19 08:44:46;;;;;;;31.90;4.37;;;14.70;99.90;;;;;;5090956;28;20877;-67
2021/06/19 08:47:13;;;;;;;20.20;4.27;;;14.70;99.90;;;;;;5091760;28;20228;-66
2021/06/19 08:49:41;;;;;;;12.50;2.80;;;14.80;99.90;;;;;;5093373;28;20179;-73
2021/06/19 08:52:09;;;;;;;24.70;3.67;;;14.70;99.90;;;;;;5093997;28;20188;-67
2021/06/19 08:54:40;;;;;;;17.60;3.63;;;14.80;99.90;;;;;;5093215;28;20194;-72
2021/06/19 08:57:13;;;;;;;19.07;3.90;;;14.80;99.90;;;;;;5092139;28;20180;-67
2021/06/19 08:59:50;;;;;;;23.93;4.23;;;14.90;99.90;;;;;;5092339;28;20177;-71
2021/06/19 09:02:19;;;;;;;21.67;3.70;;;14.80;99.90;;;;;;5093432;28;20182;-71
2021/06/19 09:04:58;;;;;;;12.57;2.93;;;14.80;99.90;;;;;;5093014;28;20684;-67
2021/06/19 09:07:50;;;;;;;17.77;3.13;;;14.80;99.90;;;;;;5092143;28;20179;-68
2021/06/19 09:10:31;;;;;;;18.47;4.37;;;14.70;99.90;;;;;;5082268;28;20298;-71
2021/06/19 09:13:11;;;;;;;18.23;3.40;;;14.70;99.90;;;;;;5093686;28;20177;-69
2021/06/19 09:15:50;;;;;;;18.50;3.97;;;14.70;99.90;;;;;;5093919;28;20173;-67
2021/06/19 09:18:23;;;;;;;15.13;3.00;;;14.60;99.90;;;;;;5093776;28;20178;-68
2021/06/19 09:21:05;;;;;;;12.27;3.73;;;14.60;99.90;;;;;;5093207;28;20249;-69
2021/06/19 09:23:36;;;;;;;18.27;3.83;;;14.70;99.90;;;;;;5093061;28;20203;-67
2021/06/19 09:26:22;;;;;;;20.40;3.87;;;14.60;99.90;;;;;;5093903;28;20206;-68
2021/06/19 09:29:17;;;;;;;17.13;3.87;;;14.50;99.90;;;;;;5083624;28;20378;-67
2021/06/19 09:31:52;;;;;;;17.97;4.60;;;14.50;99.90;;;;;;5090898;28;20186;-72
2021/06/19 09:34:29;;;;;;;17.03;3.67;;;14.60;99.90;;;;;;5085818;28;20218;-75
2021/06/19 09:37:07;;;;;;;18.40;3.90;;;14.50;99.90;;;;;;5089198;28;20182;-67
2021/06/19 09:39:38;;;;;;;20.63;4.20;;;14.50;99.90;;;;;;5092967;28;20182;-68
2021/06/19 09:42:07;;;;;;;22.53;3.93;;;14.30;99.90;;;;;;5092328;28;20186;-66
2021/06/19 09:44:42;;;;;;;20.50;3.40;;;14.30;99.90;;;;;;5092247;28;20254;-67
2021/06/19 09:47:12;;;;;;;17.10;4.00;;;14.30;99.90;;;;;;5093103;28;20185;-68
2021/06/19 09:49:47;;;;;;;22.60;4.20;;;14.40;99.90;;;;;;5091914;28;20201;-69
2021/06/19 09:52:16;;;;;;;15.23;3.23;;;14.40;99.90;;;;;;5092575;28;20540;-69
2021/06/19 09:54:57;;;;;;;15.87;3.57;;;14.40;99.90;;;;;;5092388;28;20182;-68
2021/06/19 09:57:39;;;;;;;17.40;3.00;;;14.40;99.90;;;;;;5091505;28;20209;-69
2021/06/19 10:00:09;;;;;;;12.73;3.23;;;14.50;99.90;;;;;;5092191;28;20182;-68
2021/06/19 10:02:37;;;;;;;13.83;3.57;;;14.50;99.90;;;;;;5090675;28;20637;-66
2021/06/19 10:05:04;;;;;;;22.20;3.53;;;14.50;99.90;;;;;;5092313;28;20214;-69
2021/06/19 10:07:36;;;;;;;16.47;3.70;;;14.50;99.90;;;;;;5092333;28;20645;-67
2021/06/19 10:10:09;;;;;;;17.60;3.53;;;14.40;99.90;;;;;;5090145;28;20640;-69
2021/06/19 10:12:38;;;;;;;23.43;3.93;;;14.40;99.90;;;;;;5091862;28;20181;-70
2021/06/19 10:15:16;;;;;;;17.23;3.40;;;14.40;99.90;;;;;;5089968;28;20541;-70
2021/06/19 10:17:45;;;;;;;19.07;4.07;;;14.40;99.90;;;;;;5091925;28;20201;-71
2021/06/19 10:20:17;;;;;;;11.90;2.97;;;14.40;99.90;;;;;;5078789;28;20545;-72
2021/06/19 10:22:45;;;;;;;17.60;2.67;;;14.20;99.90;;;;;;5092953;28;20697;-72
2021/06/19 10:25:16;;;;;;;16.40;3.10;;;14.10;99.90;;;;;;5092212;28;20207;-70
2021/06/19 10:27:49;;;;;;;11.30;2.93;;;14.10;99.90;;;;;;5090881;28;20177;-70
2021/06/19 10:30:17;;;;;;;17.77;3.43;;;14.00;99.90;;;;;;5090875;28;20641;-71
2021/06/19 10:32:46;;;;;;;13.13;3.53;;;14.00;99.90;;;;;;5092319;28;20229;-68
2021/06/19 10:35:22;;;;;;;16.87;3.30;;;13.80;99.90;;;;;;5092445;28;20175;-65
2021/06/19 10:37:52;;;;;;;21.70;3.70;;;13.80;99.90;;;;;;5090786;28;20192;-69
2021/06/19 10:40:25;;;;;;;13.73;3.13;;;13.70;99.90;;;;;;5087563;28;20187;-68
2021/06/19 10:42:55;;;;;;;15.03;3.23;;;13.80;99.90;;;;;;5091665;28;20182;-69
2021/06/19 10:45:30;;;;;;;11.00;2.63;;;13.90;99.90;;;;;;5088125;28;20214;-68
2021/06/19 10:48:02;;;;;;;14.07;2.77;;;14.00;99.90;;;;;;5091753;28;20181;-66
2021/06/19 10:50:30;;;;;;;10.73;2.57;;;14.10;99.90;;;;;;5091600;28;20185;-66
2021/06/19 10:53:12;;;;;;;10.80;3.37;;;14.10;99.90;;;;;;5085041;28;20206;-66
2021/06/19 10:55:59;;;;;;;11.47;2.83;;;14.10;99.90;;;;;;5083913;28;20685;-68
2021/06/19 10:58:31;;;;;;;17.33;2.47;;;14.10;99.90;;;;;;5090069;28;20257;-72
2021/06/19 11:01:04;;;;;;;11.57;2.80;;;14.10;99.90;;;;;;5089884;28;20586;-73
2021/06/19 11:03:51;;;;;;;13.93;2.83;;;14.00;99.90;;;;;;5103801;28;20569;-71
2021/06/19 11:06:29;;;;;;;11.00;2.70;;;13.80;99.90;;;;;;5092300;28;20668;-69
2021/06/19 11:09:05;;;;;;;15.73;3.43;;;13.70;99.90;;;;;;5103608;28;20181;-70
2021/06/19 11:12:06;;;;;;;11.67;2.70;;;13.50;99.90;;;;;;5089515;28;20182;-69
2021/06/19 11:14:43;;;;;;;15.60;2.50;;;13.50;99.90;;;;;;5094518;28;20235;-73
2021/06/19 11:17:14;;;;;;;10.57;2.83;;;13.50;99.90;;;;;;5094841;28;20274;-69
2021/06/19 11:19:48;;;;;;;10.97;2.33;;;13.60;99.90;;;;;;5094755;28;20502;-70
2021/06/19 11:22:29;;;;;;;15.33;3.23;;;13.60;99.90;;;;;;5097004;28;20192;-70
2021/06/19 11:25:35;;;;;;;12.93;2.67;;;13.70;99.90;;;;;;5099235;28;20221;-70
2021/06/19 11:28:11;;;;;;;22.60;3.57;;;13.70;99.90;;;;;;5086564;28;20543;-71
2021/06/19 11:30:43;;;;;;;13.23;2.47;;;13.80;99.90;;;;;;5094621;28;20545;-68
2021/06/19 11:33:26;;;;;;;10.37;2.30;;;13.90;99.90;;;;;;5084918;28;20226;-69
2021/06/19 11:36:16;;;;;;;13.30;2.87;;;13.90;99.90;;;;;;5118377;27;20196;-74
2021/06/19 11:38:52;;;;;;;18.00;3.90;;;13.80;99.90;;;;;;5094972;28;20174;-70
2021/06/19 11:41:40;;;;;;;15.20;2.40;;;13.90;99.90;;;;;;5095784;28;20637;-69
2021/06/19 11:44:19;;;;;;;14.93;3.40;;;13.90;99.90;;;;;;5097948;28;20219;-68
2021/06/19 11:46:51;;;;;;;13.60;2.90;;;13.80;99.90;;;;;;5094645;28;20504;-70
2021/06/19 11:49:25;;;;;;;10.77;2.20;;;13.80;99.90;;;;;;5095848;28;20174;-67
2021/06/19 11:51:54;;;;;;;17.17;3.20;;;13.70;99.90;;;;;;5096331;28;20194;-68
2021/06/19 11:54:24;;;;;;;10.90;2.03;;;13.70;99.90;;;;;;5083517;28;20585;-67
2021/06/19 11:56:54;;;;;;;13.50;2.70;;;13.70;99.90;;;;;;5102112;28;20212;-70
2021/06/19 11:59:22;;;;;;;8.83;2.40;;;13.70;99.90;;;;;;5107996;28;20199;-69
2021/06/19 12:01:51;;;;;;;11.37;2.70;;;13.60;99.90;;;;;;5084055;28;20656;-70
2021/06/19 12:04:19;;;;;;;20.70;3.20;;;13.60;99.90;;;;;;5093812;28;20210;-70
2021/06/19 12:06:55;;;;;;;14.53;3.10;;;13.70;99.90;;;;;;5102171;28;20182;-67
2021/06/19 12:09:34;;;;;;;15.37;2.57;;;13.70;99.90;;;;;;5095114;28;20194;-73
2021/06/19 12:12:07;;;;;;;17.93;2.60;;;13.70;99.90;;;;;;5090810;28;20179;-68
2021/06/19 12:14:37;;;;;;;16.63;2.73;;;13.60;99.90;;;;;;5096339;28;20189;-66
2021/06/19 12:17:09;;;;;;;10.07;2.20;;;13.60;99.90;;;;;;5082826;28;20202;-69
2021/06/19 12:19:41;;;;;;;14.03;3.40;;;13.50;99.90;;;;;;5095209;28;20182;-70
2021/06/19 12:22:13;;;;;;;13.50;2.50;;;13.50;99.90;;;;;;5095353;28;20729;-66
2021/06/19 12:24:43;;;;;;;14.43;2.50;;;13.40;99.90;;;;;;5100966;28;20213;-74
2021/06/19 12:27:19;;;;;;;14.23;2.07;;;13.30;99.90;;;;;;5094809;28;20179;-67
2021/06/19 12:29:47;;;;;;;13.17;2.60;;;13.20;99.90;;;;;;5103868;28;20266;-67
2021/06/19 12:32:27;;;;;;;11.60;2.63;;;13.20;99.90;;;;;;5094150;28;20178;-68
2021/06/19 12:34:58;;;;;;;15.73;2.67;;;13.00;99.90;;;;;;5094664;28;20633;-68
2021/06/19 12:37:31;;;;;;;14.77;2.73;;;12.80;99.90;;;;;;5094649;28;20217;-68
2021/06/19 12:40:00;;;;;;;12.77;2.60;;;12.60;99.90;;;;;;5095032;28;20186;-69
2021/06/19 12:43:00;;;;;;;16.60;2.47;;;12.60;99.90;;;;;;5100460;28;20193;-69
2021/06/19 12:45:44;;;;;;;16.23;2.73;;;12.50;99.90;;;;;;5084167;28;20696;-67
2021/06/19 12:48:22;;;;;;;14.50;3.00;;;12.40;99.90;;;;;;5094533;28;20181;-69
2021/06/19 12:50:51;;;;;;;16.33;2.53;;;12.40;99.90;;;;;;5094377;28;20557;-70
2021/06/19 12:53:25;;;;;;;18.33;3.77;;;12.30;99.90;;;;;;5094603;28;20196;-72
2021/06/19 12:56:01;;;;;;;10.30;2.37;;;12.30;99.90;;;;;;5094126;28;20175;-69
2021/06/19 12:58:45;;;;;;;19.23;2.67;;;12.30;99.90;;;;;;5094204;28;20636;-72